Time;durP1;ratioP1;P1;durP2;ratioP2;P2;SDS_P1;SDS_P2;PMS_P1;PMS_P2;Temp;Humidity;BMP_temperature;BMP_pressure;BME280_temperature;BME280_humidity;BME280_pressure;Samples;Min_cycle;Max_cycle;Signal;HPM_P1;HPM_P2
2022/12/12 00:02:19;;;;;;;22.73;11.47;;;;;-1.30;100442.00;;;;9748449;30;20222;-77
2022/12/12 00:07:21;;;;;;;23.47;10.53;;;;;-1.40;100444.00;;;;9780595;30;20292;-77
2022/12/12 00:12:23;;;;;;;21.70;10.30;;;;;-1.40;100443.00;;;;9781714;30;20245;-77
2022/12/12 00:17:25;;;;;;;24.37;10.50;;;;;-1.40;100449.00;;;;9751088;30;20213;-77
2022/12/12 00:22:27;;;;;;;24.83;10.47;;;;;-1.50;100448.00;;;;9767291;30;20210;-77
2022/12/12 00:27:32;;;;;;;26.87;11.90;;;;;-1.50;100455.00;;;;9745881;30;20245;-77
2022/12/12 00:32:33;;;;;;;18.40;9.73;;;;;-1.50;100456.00;;;;9766141;30;20209;-77
2022/12/12 00:37:35;;;;;;;25.23;9.90;;;;;-1.40;100459.00;;;;9765567;30;20197;-77
2022/12/12 00:42:37;;;;;;;29.40;10.67;;;;;-1.50;100466.00;;;;9766586;30;20245;-77
2022/12/12 00:47:39;;;;;;;25.83;9.57;;;;;-1.50;100464.00;;;;9755019;30;20275;-77
2022/12/12 00:52:41;;;;;;;22.33;10.50;;;;;-1.50;100475.00;;;;9746827;30;20201;-77
2022/12/12 00:57:43;;;;;;;24.40;10.37;;;;;-1.60;100466.00;;;;9731599;30;20210;-77
2022/12/12 01:02:45;;;;;;;21.50;10.60;;;;;-1.70;100466.00;;;;9754196;30;20210;-77
2022/12/12 01:07:47;;;;;;;21.07;8.80;;;;;-1.70;100462.00;;;;9781663;30;20260;-77
2022/12/12 01:12:49;;;;;;;21.47;10.90;;;;;-1.80;100472.00;;;;9778408;30;20206;-77
2022/12/12 01:17:52;;;;;;;22.53;9.70;;;;;-1.80;100481.00;;;;9751232;30;20209;-77
2022/12/12 01:22:54;;;;;;;21.00;10.20;;;;;-1.90;100479.00;;;;9726220;30;20225;-77
2022/12/12 01:27:55;;;;;;;24.97;9.53;;;;;-1.90;100486.00;;;;9788849;30;20233;-77
2022/12/12 01:32:57;;;;;;;24.03;9.90;;;;;-1.90;100491.00;;;;9766252;30;20206;-77
2022/12/12 01:37:59;;;;;;;23.30;10.37;;;;;-1.90;100502.00;;;;9764899;30;20271;-77
2022/12/12 01:43:01;;;;;;;25.37;10.03;;;;;-2.00;100497.00;;;;9793815;30;20268;-77
2022/12/12 01:48:04;;;;;;;22.93;9.73;;;;;-2.10;100502.00;;;;9760001;30;20221;-77
2022/12/12 01:53:06;;;;;;;15.77;8.63;;;;;-2.10;100509.00;;;;9751592;30;20233;-77
2022/12/12 01:58:09;;;;;;;17.33;8.60;;;;;-2.10;100512.00;;;;9754202;30;20257;-77
2022/12/12 02:03:11;;;;;;;19.73;9.57;;;;;-2.20;100517.00;;;;9773884;30;20221;-73
2022/12/12 02:08:15;;;;;;;17.63;8.20;;;;;-2.20;100512.00;;;;9763078;30;20210;-73
2022/12/12 02:13:21;;;;;;;25.87;11.07;;;;;-2.30;100511.00;;;;9774903;30;20216;-73
2022/12/12 02:18:54;;;;;;;24.20;9.47;;;;;-2.40;100510.00;;;;9791730;30;20214;-73
2022/12/12 02:24:27;;;;;;;31.57;11.60;;;;;-2.50;100513.00;;;;9759428;30;20279;-73
2022/12/12 02:29:41;;;;;;;24.27;10.77;;;;;-2.60;100505.00;;;;9754070;30;20241;-73
2022/12/12 02:35:21;;;;;;;24.33;10.23;;;;;-2.70;100500.00;;;;9761387;30;20206;-73
2022/12/12 02:40:35;;;;;;;16.37;8.33;;;;;-2.60;100501.00;;;;9741453;30;20221;-73
2022/12/12 02:45:45;;;;;;;24.43;9.87;;;;;-2.40;100489.00;;;;9746179;30;20237;-73
2022/12/12 02:50:50;;;;;;;20.33;9.60;;;;;-2.40;100479.00;;;;9742835;30;20281;-73
2022/12/12 02:56:26;;;;;;;20.23;9.13;;;;;-2.50;100471.00;;;;9759871;30;20208;-73
2022/12/12 03:01:49;;;;;;;16.00;7.60;;;;;-2.70;100479.00;;;;9774092;30;20213;-73
2022/12/12 03:07:46;;;;;;;19.60;9.03;;;;;-2.90;100481.00;;;;9759405;30;20629;-73
2022/12/12 03:13:07;;;;;;;17.60;8.60;;;;;-3.00;100485.00;;;;9628593;30;20208;-73
2022/12/12 03:18:46;;;;;;;17.10;8.03;;;;;-3.10;100484.00;;;;9749507;30;20233;-74
2022/12/12 03:23:53;;;;;;;17.10;9.13;;;;;-3.20;100487.00;;;;9754698;30;20213;-73
2022/12/12 03:29:12;;;;;;;19.60;9.00;;;;;-3.20;100487.00;;;;9744055;30;20229;-73
2022/12/12 03:34:21;;;;;;;17.83;7.73;;;;;-3.30;100485.00;;;;9760776;30;20202;-73
2022/12/12 03:39:29;;;;;;;16.47;8.03;;;;;-3.30;100486.00;;;;9753188;30;20230;-74
2022/12/12 03:44:54;;;;;;;20.23;8.23;;;;;-3.40;100487.00;;;;9767247;30;20271;-73
2022/12/12 03:50:10;;;;;;;26.13;9.23;;;;;-3.40;100494.00;;;;9742462;30;20674;-74
2022/12/12 03:55:23;;;;;;;19.87;8.10;;;;;-3.40;100500.00;;;;9781402;30;20623;-74
2022/12/12 04:00:27;;;;;;;20.80;9.03;;;;;-3.50;100498.00;;;;9751976;30;20256;-74
2022/12/12 04:16:44;;;;;;;21.27;9.10;;;;;-3.60;100520.00;;;;9766731;30;20220;-74
2022/12/12 04:27:36;;;;;;;18.73;9.07;;;;;-3.70;100523.00;;;;9758199;30;20290;-74
2022/12/12 04:33:10;;;;;;;19.23;6.93;;;;;-3.70;100528.00;;;;9750460;30;20259;-74
2022/12/12 04:38:20;;;;;;;17.40;7.60;;;;;-3.70;100526.00;;;;9763541;30;20205;-74
2022/12/12 04:43:32;;;;;;;19.33;9.17;;;;;-3.80;100531.00;;;;9764281;30;20230;-74
2022/12/12 04:48:45;;;;;;;16.90;7.93;;;;;-3.80;100529.00;;;;9778634;30;20650;-74
2022/12/12 04:53:52;;;;;;;19.67;7.83;;;;;-3.80;100530.00;;;;9729881;30;20579;-74
2022/12/12 04:58:54;;;;;;;21.20;8.37;;;;;-3.80;100527.00;;;;9763949;30;20202;-74
2022/12/12 05:04:08;;;;;;;18.07;8.03;;;;;-3.80;100527.00;;;;9764285;30;20201;-74
2022/12/12 05:09:13;;;;;;;17.23;7.57;;;;;-3.90;100530.00;;;;9750400;30;20205;-74
2022/12/12 05:14:16;;;;;;;16.30;7.23;;;;;-3.90;100534.00;;;;9750235;30;20206;-74
2022/12/12 05:19:18;;;;;;;16.77;8.13;;;;;-4.00;100539.00;;;;9793589;30;20214;-74
2022/12/12 05:24:20;;;;;;;24.43;8.73;;;;;-4.10;100537.00;;;;9763012;30;20249;-74
2022/12/12 05:29:22;;;;;;;18.67;7.83;;;;;-4.10;100532.00;;;;9764689;30;20225;-74
2022/12/12 05:34:24;;;;;;;14.67;6.80;;;;;-4.10;100528.00;;;;9763094;30;20206;-74
2022/12/12 05:39:26;;;;;;;17.60;7.83;;;;;-4.20;100535.00;;;;9778933;30;20684;-74
2022/12/12 05:44:28;;;;;;;16.30;7.23;;;;;-4.20;100544.00;;;;9735717;30;20269;-74
2022/12/12 05:49:30;;;;;;;20.10;8.10;;;;;-4.20;100543.00;;;;9770047;30;20201;-74
2022/12/12 05:54:32;;;;;;;17.23;7.13;;;;;-4.20;100553.00;;;;9777126;30;20225;-74
2022/12/12 05:59:34;;;;;;;15.67;7.20;;;;;-4.20;100548.00;;;;9761961;30;20227;-74
2022/12/12 06:04:36;;;;;;;19.87;8.53;;;;;-4.20;100549.00;;;;9750904;30;20233;-74
2022/12/12 06:09:37;;;;;;;23.70;9.57;;;;;-4.30;100549.00;;;;9792071;30;20202;-74
2022/12/12 06:14:39;;;;;;;21.90;9.80;;;;;-4.40;100557.00;;;;9745181;30;20559;-74
2022/12/12 06:19:41;;;;;;;15.93;8.30;;;;;-4.40;100555.00;;;;9787507;30;20226;-74
2022/12/12 06:24:43;;;;;;;17.97;7.63;;;;;-4.40;100547.00;;;;9747678;30;20571;-74
2022/12/12 06:29:45;;;;;;;15.20;7.33;;;;;-4.50;100565.00;;;;9776996;30;20299;-74
2022/12/12 06:34:47;;;;;;;22.30;10.47;;;;;-4.50;100572.00;;;;9775907;30;20209;-74
2022/12/12 06:39:49;;;;;;;20.27;8.50;;;;;-4.50;100572.00;;;;9761203;30;20225;-74
2022/12/12 06:44:51;;;;;;;20.67;9.93;;;;;-4.60;100577.00;;;;9776710;30;20201;-74
2022/12/12 06:49:52;;;;;;;24.17;9.80;;;;;-4.60;100568.00;;;;9736042;30;20205;-74
2022/12/12 06:54:54;;;;;;;19.77;9.73;;;;;-4.60;100576.00;;;;9753428;30;20216;-74
2022/12/12 06:59:56;;;;;;;20.87;9.30;;;;;-4.60;100587.00;;;;9746394;30;20747;-74
2022/12/12 07:04:58;;;;;;;19.17;9.90;;;;;-4.60;100577.00;;;;9754659;30;20295;-74
2022/12/12 07:10:00;;;;;;;20.73;9.57;;;;;-4.60;100582.00;;;;9746341;30;20259;-74
2022/12/12 07:15:02;;;;;;;19.57;8.90;;;;;-4.60;100597.00;;;;9776144;30;20201;-74
2022/12/12 07:20:04;;;;;;;21.57;9.17;;;;;-4.60;100600.00;;;;9762015;30;20221;-74
2022/12/12 07:25:07;;;;;;;17.63;8.47;;;;;-4.60;100601.00;;;;9760981;30;20202;-74
2022/12/12 07:30:09;;;;;;;24.23;9.77;;;;;-4.60;100606.00;;;;9758947;30;20222;-74
2022/12/12 07:35:12;;;;;;;20.50;8.37;;;;;-4.60;100606.00;;;;9741569;30;20214;-74
2022/12/12 07:40:14;;;;;;;24.53;9.27;;;;;-4.40;100617.00;;;;9756482;30;20218;-75
2022/12/12 07:45:16;;;;;;;22.93;9.80;;;;;-4.40;100617.00;;;;9737745;30;20704;-74
2022/12/12 07:50:20;;;;;;;23.13;8.20;;;;;-4.30;100629.00;;;;9750699;30;20205;-75
2022/12/12 07:55:22;;;;;;;19.60;8.83;;;;;-4.30;100641.00;;;;9787120;30;20233;-74
2022/12/12 08:00:23;;;;;;;29.27;10.80;;;;;-4.20;100652.00;;;;9731980;30;20209;-75
2022/12/12 08:05:25;;;;;;;20.67;8.73;;;;;-4.20;100655.00;;;;9756771;30;20198;-75
2022/12/12 08:10:27;;;;;;;21.20;9.47;;;;;-4.20;100657.00;;;;9758019;30;20285;-75
2022/12/12 08:15:29;;;;;;;16.83;7.57;;;;;-4.00;100660.00;;;;9741330;30;20678;-76
2022/12/12 08:20:31;;;;;;;21.53;9.30;;;;;-3.90;100663.00;;;;9755670;30;20217;-76
2022/12/12 08:25:35;;;;;;;16.93;7.63;;;;;-3.80;100657.00;;;;9780685;30;20686;-77
2022/12/12 08:30:37;;;;;;;20.90;7.87;;;;;-3.60;100655.00;;;;9729566;30;20309;-75
2022/12/12 08:35:39;;;;;;;18.03;8.40;;;;;-3.50;100657.00;;;;9740714;30;20261;-74
2022/12/12 08:40:41;;;;;;;26.97;9.27;;;;;-3.30;100654.00;;;;9762233;30;20228;-74
2022/12/12 08:45:44;;;;;;;21.73;9.47;;;;;-3.10;100642.00;;;;9758553;30;20228;-74
2022/12/12 08:50:46;;;;;;;21.67;9.53;;;;;-2.80;100651.00;;;;9779540;30;20206;-75
2022/12/12 08:55:48;;;;;;;19.93;9.47;;;;;-2.60;100645.00;;;;9761452;30;20210;-75
2022/12/12 09:00:49;;;;;;;28.90;11.57;;;;;-2.20;100650.00;;;;9736785;30;20222;-77
2022/12/12 09:05:52;;;;;;;22.63;9.13;;;;;-1.90;100655.00;;;;9761491;30;20265;-78
2022/12/12 09:10:53;;;;;;;33.07;11.03;;;;;-1.50;100655.00;;;;9778862;30;20198;-77
2022/12/12 09:15:56;;;;;;;19.53;8.37;;;;;-1.20;100644.00;;;;9769218;30;20209;-78
2022/12/12 09:20:58;;;;;;;21.17;10.13;;;;;-1.00;100645.00;;;;9750233;30;20905;-77
2022/12/12 09:26:07;;;;;;;26.27;10.40;;;;;-0.70;100641.00;;;;9749162;30;20252;-77
2022/12/12 09:31:11;;;;;;;20.17;9.43;;;;;-0.50;100640.00;;;;9724659;30;20226;-77
2022/12/12 09:36:13;;;;;;;18.90;8.83;;;;;-0.30;100642.00;;;;9735836;30;20210;-77
2022/12/12 09:41:22;;;;;;;23.00;9.50;;;;;-0.10;100647.00;;;;9728205;30;20828;-77
2022/12/12 09:46:30;;;;;;;26.43;11.90;;;;;0.10;100641.00;;;;9758169;30;20578;-77
2022/12/12 09:51:32;;;;;;;28.90;13.57;;;;;0.30;100649.00;;;;9743446;30;20257;-76
2022/12/12 09:56:46;;;;;;;23.97;10.70;;;;;0.50;100655.00;;;;9755411;30;20645;-77
2022/12/12 10:02:04;;;;;;;23.83;11.07;;;;;0.80;100648.00;;;;9734933;30;20214;-77
2022/12/12 10:07:25;;;;;;;34.23;12.57;;;;;1.00;100650.00;;;;9717144;30;20214;-77
2022/12/12 10:12:28;;;;;;;30.33;12.60;;;;;1.20;100659.00;;;;9776550;30;20206;-77
2022/12/12 10:17:39;;;;;;;25.47;11.83;;;;;1.40;100655.00;;;;9739746;30;20210;-77
2022/12/12 10:23:22;;;;;;;25.57;11.77;;;;;1.60;100656.00;;;;9766084;30;20218;-77
2022/12/12 10:28:27;;;;;;;24.77;11.00;;;;;1.80;100644.00;;;;9630377;30;20235;-76
2022/12/12 10:33:45;;;;;;;21.47;10.57;;;;;2.10;100650.00;;;;9717660;30;20931;-76
2022/12/12 10:39:28;;;;;;;18.83;9.17;;;;;2.30;100655.00;;;;9733190;30;20622;-76
2022/12/12 10:45:04;;;;;;;24.40;10.43;;;;;2.40;100648.00;;;;9745846;30;20204;-77
2022/12/12 10:50:09;;;;;;;17.20;8.37;;;;;2.50;100638.00;;;;9754014;30;20198;-76
2022/12/12 10:55:19;;;;;;;15.87;9.57;;;;;2.60;100640.00;;;;9742647;30;20213;-77
2022/12/12 11:00:29;;;;;;;17.40;8.77;;;;;2.70;100649.00;;;;9748932;30;20218;-77
2022/12/12 11:05:35;;;;;;;22.17;8.50;;;;;2.90;100647.00;;;;9749827;30;20295;-77
2022/12/12 11:10:37;;;;;;;16.77;9.47;;;;;3.00;100648.00;;;;9744577;30;20200;-77
2022/12/12 11:15:45;;;;;;;17.63;8.17;;;;;3.10;100639.00;;;;9741965;30;20209;-76
2022/12/12 11:20:51;;;;;;;14.17;7.97;;;;;3.00;100638.00;;;;9750769;30;20217;-77
2022/12/12 11:25:59;;;;;;;15.30;7.73;;;;;3.10;100640.00;;;;9766233;30;20210;-76
2022/12/12 11:31:10;;;;;;;19.10;9.17;;;;;3.00;100635.00;;;;9764901;30;20225;-76
2022/12/12 11:36:20;;;;;;;20.93;9.43;;;;;2.90;100630.00;;;;9736303;30;20305;-76
2022/12/12 11:41:22;;;;;;;14.23;7.70;;;;;2.90;100630.00;;;;9737961;30;20285;-76
2022/12/12 11:46:32;;;;;;;16.77;8.90;;;;;2.90;100630.00;;;;9717676;30;20709;-77
2022/12/12 11:51:39;;;;;;;16.53;9.73;;;;;2.90;100628.00;;;;9748352;30;20206;-76
2022/12/12 11:56:51;;;;;;;16.43;8.53;;;;;3.10;100621.00;;;;9740277;30;20202;-76
2022/12/12 12:02:05;;;;;;;19.27;9.87;;;;;3.30;100613.00;;;;9744917;30;20230;-76
2022/12/12 12:07:36;;;;;;;18.50;9.30;;;;;3.40;100612.00;;;;9746008;30;20746;-76
2022/12/12 12:13:05;;;;;;;18.00;9.20;;;;;3.50;100614.00;;;;9710445;30;20730;-76
2022/12/12 12:18:10;;;;;;;20.23;8.77;;;;;3.60;100615.00;;;;9743567;30;20210;-76
2022/12/12 12:23:26;;;;;;;16.93;8.90;;;;;3.70;100606.00;;;;9739430;30;20225;-76
2022/12/12 12:28:51;;;;;;;20.67;9.70;;;;;3.70;100604.00;;;;9761124;30;20233;-76
2022/12/12 12:34:38;;;;;;;19.67;9.57;;;;;3.80;100605.00;;;;9756717;30;20210;-76
2022/12/12 12:39:57;;;;;;;17.47;9.80;;;;;3.80;100593.00;;;;9741558;30;20194;-76
2022/12/12 12:45:04;;;;;;;19.13;9.90;;;;;4.00;100595.00;;;;9750947;30;20657;-76
2022/12/12 12:50:28;;;;;;;17.60;9.97;;;;;4.00;100588.00;;;;9727418;30;20674;-76
2022/12/12 12:55:40;;;;;;;17.03;9.30;;;;;4.00;100589.00;;;;9725732;30;21598;-76
2022/12/12 13:00:43;;;;;;;20.30;9.87;;;;;4.00;100601.00;;;;9721494;30;20229;-76
2022/12/12 13:05:58;;;;;;;17.07;9.17;;;;;3.90;100600.00;;;;9727799;30;20210;-76
2022/12/12 13:11:14;;;;;;;22.50;11.00;;;;;3.90;100596.00;;;;9759122;30;20198;-75
2022/12/12 13:16:23;;;;;;;18.43;9.50;;;;;3.80;100596.00;;;;9738633;30;20684;-76
2022/12/12 13:21:44;;;;;;;20.40;10.27;;;;;3.70;100580.00;;;;9734396;30;20313;-76
2022/12/12 13:27:00;;;;;;;17.57;9.23;;;;;3.50;100573.00;;;;9717019;30;20749;-76
2022/12/12 13:32:33;;;;;;;19.33;8.50;;;;;3.40;100568.00;;;;9752532;30;20237;-76
2022/12/12 13:37:46;;;;;;;17.63;8.47;;;;;3.20;100573.00;;;;9756891;30;20200;-76
2022/12/12 13:42:58;;;;;;;15.40;8.83;;;;;2.90;100575.00;;;;9756753;30;20229;-76
2022/12/12 13:48:36;;;;;;;13.73;7.77;;;;;2.80;100574.00;;;;9734851;30;20217;-76
2022/12/12 13:53:46;;;;;;;16.70;7.77;;;;;2.70;100566.00;;;;9757426;30;20726;-77
2022/12/12 13:58:48;;;;;;;14.47;8.33;;;;;2.40;100579.00;;;;9782823;30;20213;-77
2022/12/12 14:03:50;;;;;;;14.23;7.33;;;;;2.10;100568.00;;;;9739377;30;20209;-77
2022/12/12 14:08:53;;;;;;;17.23;8.10;;;;;1.90;100562.00;;;;9736141;30;20248;-77
2022/12/12 14:14:21;;;;;;;14.13;5.90;;;;;1.80;100549.00;;;;9723443;30;20213;-77
2022/12/12 14:19:28;;;;;;;14.13;6.73;;;;;1.60;100546.00;;;;9741560;30;20217;-77
2022/12/12 14:24:33;;;;;;;13.03;6.73;;;;;1.50;100557.00;;;;9765390;30;20205;-77
2022/12/12 14:29:41;;;;;;;22.27;7.30;;;;;1.40;100557.00;;;;9756970;30;20256;-77
2022/12/12 14:35:14;;;;;;;15.07;6.77;;;;;1.30;100561.00;;;;9751701;30;20622;-77
2022/12/12 14:40:21;;;;;;;13.73;6.93;;;;;1.10;100559.00;;;;9737719;30;20229;-77
2022/12/12 14:45:30;;;;;;;16.70;7.40;;;;;1.00;100559.00;;;;9754309;30;20260;-77
2022/12/12 14:50:32;;;;;;;15.90;6.87;;;;;0.90;100572.00;;;;9756681;30;20206;-77
2022/12/12 14:55:34;;;;;;;14.83;6.83;;;;;0.80;100563.00;;;;9722343;30;20213;-77
2022/12/12 15:00:45;;;;;;;16.13;6.30;;;;;0.70;100565.00;;;;9733458;30;20225;-77
2022/12/12 15:05:47;;;;;;;16.30;6.80;;;;;0.60;100576.00;;;;9749440;30;20209;-76
2022/12/12 15:10:57;;;;;;;14.70;6.67;;;;;0.50;100570.00;;;;9739031;30;20206;-77
2022/12/12 15:15:59;;;;;;;13.07;6.57;;;;;0.40;100563.00;;;;9733108;30;20210;-77
2022/12/12 15:21:01;;;;;;;14.30;7.00;;;;;0.30;100568.00;;;;9737424;30;20290;-77
2022/12/12 15:26:03;;;;;;;18.47;6.77;;;;;0.10;100574.00;;;;9734370;30;20236;-76
2022/12/12 15:31:05;;;;;;;17.97;6.83;;;;;-0.10;100580.00;;;;9753548;30;20260;-76
2022/12/12 15:36:26;;;;;;;11.20;6.07;;;;;-0.20;100592.00;;;;9736318;30;20210;-77
2022/12/12 15:41:29;;;;;;;17.23;8.03;;;;;-0.30;100598.00;;;;9762016;30;20244;-77
2022/12/12 15:46:31;;;;;;;16.53;7.17;;;;;-0.40;100599.00;;;;9758479;30;20205;-76
2022/12/12 15:51:33;;;;;;;16.23;6.97;;;;;-0.50;100602.00;;;;9764303;30;20233;-76
2022/12/12 15:56:35;;;;;;;15.10;7.03;;;;;-0.60;100600.00;;;;9765642;30;20206;-76
2022/12/12 16:01:37;;;;;;;17.53;7.77;;;;;-0.70;100597.00;;;;9778309;30;20221;-77
2022/12/12 16:06:45;;;;;;;18.27;7.53;;;;;-0.70;100595.00;;;;9761994;30;20314;-77
2022/12/12 16:11:49;;;;;;;14.17;6.80;;;;;-0.90;100603.00;;;;9745724;30;20201;-77
2022/12/12 16:17:05;;;;;;;16.13;7.50;;;;;-1.00;100594.00;;;;9749156;30;20263;-77
2022/12/12 16:22:27;;;;;;;20.37;9.20;;;;;-1.20;100596.00;;;;9729685;30;20214;-77
2022/12/12 16:27:29;;;;;;;15.70;6.97;;;;;-1.30;100602.00;;;;9751130;30;20213;-77
2022/12/12 16:32:31;;;;;;;12.73;7.43;;;;;-1.40;100602.00;;;;9763153;30;20221;-77
2022/12/12 16:37:33;;;;;;;15.60;8.47;;;;;-1.40;100592.00;;;;9766343;30;20211;-77
2022/12/12 16:42:35;;;;;;;20.33;7.23;;;;;-1.40;100596.00;;;;9744848;30;20217;-77
2022/12/12 16:47:37;;;;;;;12.77;6.83;;;;;-1.50;100601.00;;;;9742298;30;20210;-76
2022/12/12 16:52:39;;;;;;;16.97;7.53;;;;;-1.50;100602.00;;;;9749939;30;20202;-77
2022/12/12 16:57:41;;;;;;;23.63;7.60;;;;;-1.50;100591.00;;;;9764076;30;20198;-77
2022/12/12 17:02:43;;;;;;;19.93;7.83;;;;;-1.50;100582.00;;;;9764170;30;20224;-77
2022/12/12 17:07:45;;;;;;;19.70;8.87;;;;;-1.60;100591.00;;;;9735797;30;20263;-77
2022/12/12 17:12:47;;;;;;;18.40;8.40;;;;;-1.50;100588.00;;;;9749636;30;20205;-77
2022/12/12 17:17:49;;;;;;;16.73;8.17;;;;;-1.50;100589.00;;;;9737479;30;20210;-77
2022/12/12 17:22:51;;;;;;;20.00;8.60;;;;;-1.60;100598.00;;;;9743348;30;20285;-77
2022/12/12 17:27:53;;;;;;;18.83;9.53;;;;;-1.70;100591.00;;;;9733116;30;1090847;-77
2022/12/12 17:32:55;;;;;;;25.17;9.60;;;;;-1.70;100588.00;;;;9715025;30;20552;-77
2022/12/12 17:38:14;;;;;;;19.33;8.07;;;;;-1.80;100596.00;;;;9719599;30;20190;-77
2022/12/12 17:43:17;;;;;;;18.93;9.47;;;;;-1.90;100594.00;;;;9743452;30;20215;-77
2022/12/12 17:48:19;;;;;;;23.70;8.53;;;;;-2.00;100602.00;;;;9764682;30;20217;-77
2022/12/12 17:53:21;;;;;;;25.73;10.20;;;;;-2.00;100590.00;;;;9726383;30;20214;-77
2022/12/12 17:58:23;;;;;;;22.50;10.10;;;;;-2.00;100589.00;;;;9742709;30;20225;-77
2022/12/12 18:03:31;;;;;;;22.10;9.50;;;;;-1.90;100601.00;;;;9765257;30;20225;-77
2022/12/12 18:08:34;;;;;;;27.07;10.37;;;;;-1.90;100599.00;;;;9765382;30;20228;-77
2022/12/12 18:13:39;;;;;;;18.53;9.23;;;;;-2.00;100589.00;;;;9750741;30;20206;-77
2022/12/12 18:18:41;;;;;;;20.73;9.23;;;;;-2.10;100589.00;;;;9734295;30;20261;-77
2022/12/12 18:23:43;;;;;;;19.33;9.63;;;;;-2.10;100588.00;;;;9739690;30;20230;-77
2022/12/12 18:28:46;;;;;;;18.10;10.00;;;;;-2.10;100592.00;;;;9736062;30;20706;-77
2022/12/12 18:33:48;;;;;;;22.47;10.47;;;;;-2.00;100593.00;;;;9748052;30;20213;-77
2022/12/12 18:38:52;;;;;;;18.70;9.63;;;;;-2.10;100595.00;;;;9763202;30;20248;-77
2022/12/12 18:43:54;;;;;;;23.57;10.93;;;;;-2.20;100600.00;;;;9763420;30;20945;-77
2022/12/12 18:48:57;;;;;;;24.43;10.80;;;;;-2.40;100599.00;;;;9762885;30;20252;-77
2022/12/12 18:54:01;;;;;;;17.17;10.37;;;;;-2.50;100592.00;;;;9763022;30;20260;-77
2022/12/12 18:59:03;;;;;;;22.30;9.40;;;;;-2.60;100598.00;;;;9762324;30;20764;-79
2022/12/12 19:04:05;;;;;;;21.37;9.43;;;;;-2.70;100595.00;;;;9760191;30;20214;-77
2022/12/12 19:09:15;;;;;;;23.47;9.70;;;;;-2.90;100588.00;;;;9736277;30;20210;-77
2022/12/12 19:14:17;;;;;;;18.80;8.97;;;;;-2.60;100589.00;;;;9713048;30;20211;-77
2022/12/12 19:19:21;;;;;;;17.00;8.37;;;;;-2.50;100592.00;;;;9739940;30;20678;-77
2022/12/12 19:24:23;;;;;;;25.27;9.63;;;;;-2.50;100586.00;;;;9746858;30;21058;-76
2022/12/12 19:29:24;;;;;;;23.77;10.37;;;;;-2.60;100589.00;;;;9748966;30;20332;-77
2022/12/12 19:34:28;;;;;;;23.80;10.67;;;;;-2.60;100576.00;;;;9734121;30;20284;-77
2022/12/12 19:39:30;;;;;;;23.80;9.43;;;;;-2.70;100579.00;;;;9713028;30;20238;-77
2022/12/12 19:44:32;;;;;;;23.90;11.40;;;;;-2.90;100576.00;;;;9713543;30;20232;-77
2022/12/12 19:49:33;;;;;;;30.87;11.00;;;;;-3.10;100583.00;;;;9720752;30;20210;-77
2022/12/12 19:54:35;;;;;;;20.03;9.93;;;;;-3.20;100591.00;;;;9749169;30;20709;-77
2022/12/12 19:59:37;;;;;;;23.03;10.50;;;;;-3.30;100598.00;;;;9749408;30;20229;-77
2022/12/12 20:04:40;;;;;;;24.20;11.23;;;;;-3.40;100583.00;;;;9760240;30;20223;-78
2022/12/12 20:09:42;;;;;;;26.77;11.97;;;;;-3.50;100594.00;;;;9715700;30;21137;-77
2022/12/12 20:14:44;;;;;;;32.20;11.47;;;;;-3.60;100582.00;;;;9750435;30;20240;-78
2022/12/12 20:19:48;;;;;;;21.57;11.30;;;;;-3.60;100601.00;;;;9768855;30;20784;-78
2022/12/12 20:24:49;;;;;;;24.60;12.43;;;;;-3.70;100609.00;;;;9770034;30;20225;-77
2022/12/12 20:29:51;;;;;;;25.43;10.80;;;;;-3.80;100591.00;;;;9720625;30;20242;-77
2022/12/12 20:34:53;;;;;;;29.07;12.03;;;;;-3.90;100597.00;;;;9775399;30;20213;-78
2022/12/12 20:39:55;;;;;;;23.07;10.37;;;;;-4.00;100605.00;;;;9740996;30;20240;-79
2022/12/12 20:44:59;;;;;;;24.93;11.13;;;;;-4.00;100608.00;;;;9755875;30;20214;-77
2022/12/12 20:50:01;;;;;;;26.50;13.50;;;;;-4.10;100609.00;;;;9756381;30;20663;-79
2022/12/12 20:55:03;;;;;;;33.67;12.97;;;;;-4.20;100614.00;;;;9756480;30;20580;-78
2022/12/12 21:00:06;;;;;;;27.50;13.20;;;;;-4.20;100619.00;;;;9739482;30;20264;-78
2022/12/12 21:05:08;;;;;;;28.73;13.80;;;;;-4.20;100626.00;;;;9784219;30;20226;-78
2022/12/12 21:10:10;;;;;;;25.80;13.27;;;;;-4.30;100614.00;;;;9748427;30;20203;-77
2022/12/12 21:15:12;;;;;;;29.13;15.43;;;;;-4.20;100617.00;;;;9760679;30;20674;-77
2022/12/12 21:20:14;;;;;;;32.47;12.03;;;;;-4.20;100615.00;;;;9755129;30;20206;-77
2022/12/12 21:25:15;;;;;;;23.43;11.87;;;;;-4.20;100622.00;;;;9755255;30;20635;-77
2022/12/12 21:30:18;;;;;;;25.63;12.50;;;;;-4.30;100624.00;;;;9743927;30;20296;-77
2022/12/12 21:35:20;;;;;;;25.30;12.83;;;;;-4.40;100610.00;;;;9749416;30;20213;-77
2022/12/12 21:40:21;;;;;;;27.10;12.80;;;;;-4.40;100615.00;;;;9726509;30;20213;-77
2022/12/12 21:45:23;;;;;;;25.57;13.10;;;;;-4.50;100604.00;;;;9746192;30;20633;-78
2022/12/12 21:50:25;;;;;;;24.57;12.60;;;;;-4.60;100603.00;;;;9722559;30;20612;-77
2022/12/12 21:55:35;;;;;;;28.57;14.37;;;;;-4.70;100597.00;;;;9735893;30;20213;-78
2022/12/12 22:00:38;;;;;;;33.60;14.43;;;;;-4.70;100600.00;;;;9754487;30;20259;-77
2022/12/12 22:05:40;;;;;;;32.47;14.60;;;;;-4.80;100614.00;;;;9783593;30;20221;-76
2022/12/12 22:10:42;;;;;;;22.27;12.13;;;;;-4.80;100607.00;;;;9739367;30;20218;-78
2022/12/12 22:15:55;;;;;;;27.57;14.47;;;;;-4.80;100597.00;;;;9753185;30;20202;-78
2022/12/12 22:21:09;;;;;;;32.53;15.00;;;;;-4.80;100607.00;;;;9768864;30;20249;-78
2022/12/12 22:26:33;;;;;;;34.33;14.83;;;;;-4.90;100606.00;;;;9754959;30;20248;-78
2022/12/12 22:31:36;;;;;;;34.90;16.23;;;;;-5.00;100596.00;;;;9729363;30;20230;-79
2022/12/12 22:36:39;;;;;;;31.10;14.00;;;;;-4.90;100610.00;;;;9708182;30;20206;-78
2022/12/12 22:41:41;;;;;;;45.17;18.97;;;;;-5.00;100599.00;;;;9732727;30;20253;-79
2022/12/12 22:46:45;;;;;;;33.67;15.87;;;;;-5.00;100604.00;;;;9745683;30;20228;-78
2022/12/12 22:51:48;;;;;;;38.73;17.43;;;;;-5.10;100610.00;;;;9767815;30;20198;-78
2022/12/12 22:56:50;;;;;;;34.07;14.30;;;;;-5.10;100605.00;;;;9753774;30;20194;-77
2022/12/12 23:01:52;;;;;;;28.07;13.23;;;;;-5.20;100598.00;;;;9760462;30;20209;-77
2022/12/12 23:06:54;;;;;;;35.47;13.53;;;;;-5.20;100604.00;;;;9753173;30;20214;-78
2022/12/12 23:11:56;;;;;;;30.07;14.57;;;;;-5.30;100596.00;;;;9754104;30;20296;-78
2022/12/12 23:16:58;;;;;;;31.27;15.43;;;;;-5.30;100601.00;;;;9742838;30;20205;-78
2022/12/12 23:22:00;;;;;;;25.63;12.60;;;;;-5.30;100591.00;;;;9767556;30;20238;-78
2022/12/12 23:27:02;;;;;;;27.03;12.90;;;;;-5.40;100588.00;;;;9743575;30;20214;-77
2022/12/12 23:32:04;;;;;;;27.53;14.03;;;;;-5.40;100572.00;;;;9736155;30;20237;-78
2022/12/12 23:37:06;;;;;;;25.40;13.90;;;;;-5.40;100563.00;;;;9733322;30;20293;-79
2022/12/12 23:42:08;;;;;;;33.13;16.30;;;;;-5.50;100566.00;;;;9767414;30;20291;-78
2022/12/12 23:47:10;;;;;;;41.93;14.90;;;;;-5.50;100578.00;;;;9767712;30;20202;-78
2022/12/12 23:52:13;;;;;;;31.17;14.83;;;;;-5.50;100566.00;;;;9754271;30;20306;-78
2022/12/12 23:57:15;;;;;;;25.57;12.57;;;;;-5.60;100551.00;;;;9760132;30;20206;-78
